sensor_id;sensor_type;location;lat;lon;timestamp;P1;durP1;ratioP1;P2;durP2;ratioP2
72974;SDS011;74127;54.228;37.632;2024-01-15T00:02:13;11.7;;;9.3;;
72974;SDS011;74127;54.228;37.632;2024-01-15T00:06:13;11.7;;;9.3;;
72974;SDS011;74127;54.228;37.632;2024-01-15T00:10:13;12.7;;;8.7;;
72974;SDS011;74127;54.228;37.632;2024-01-15T00:14:13;13;;;11.7;;
72974;SDS011;74127;54.228;37.632;2024-01-15T00:18:13;10.8;;;9.2;;
72974;SDS011;74127;54.228;37.632;2024-01-15T00:22:13;14.4;;;11.2;;
72974;SDS011;74127;54.228;37.632;2024-01-15T00:26:13;14.4;;;11.2;;
72974;SDS011;74127;54.228;37.632;2024-01-15T00:30:13;18.4;;;13;;
72974;SDS011;74127;54.228;37.632;2024-01-15T00:34:13;17.7;;;14.4;;
72974;SDS011;74127;54.228;37.632;2024-01-15T00:38:13;12.2;;;9.4;;
72974;SDS011;74127;54.228;37.632;2024-01-15T00:42:13;16;;;12.8;;
72974;SDS011;74127;54.228;37.632;2024-01-15T00:46:13;16;;;12.8;;
72974;SDS011;74127;54.228;37.632;2024-01-15T00:50:13;12.8;;;10.1;;
72974;SDS011;74127;54.228;37.632;2024-01-15T00:54:13;10.7;;;9.1;;
72974;SDS011;74127;54.228;37.632;2024-01-15T00:58:13;13.8;;;11.5;;
72974;SDS011;74127;54.228;37.632;2024-01-15T01:02:13;14;;;10.2;;
72974;SDS011;74127;54.228;37.632;2024-01-15T01:06:13;14;;;10.2;;
72974;SDS011;74127;54.228;37.632;2024-01-15T01:10:13;15.7;;;10.6;;
72974;SDS011;74127;54.228;37.632;2024-01-15T01:14:13;17.7;;;12.8;;
72974;SDS011;74127;54.228;37.632;2024-01-15T01:18:13;14.2;;;11.6;;
72974;SDS011;74127;54.228;37.632;2024-01-15T01:22:13;13.5;;;10;;
72974;SDS011;74127;54.228;37.632;2024-01-15T01:26:17;13.5;;;10;;
72974;SDS011;74127;54.228;37.632;2024-01-15T01:30:13;11.2;;;10;;
72974;SDS011;74127;54.228;37.632;2024-01-15T01:34:14;9.3;;;8.4;;
72974;SDS011;74127;54.228;37.632;2024-01-15T01:38:13;14.8;;;11.3;;
72974;SDS011;74127;54.228;37.632;2024-01-15T01:42:13;14.8;;;11.3;;
72974;SDS011;74127;54.228;37.632;2024-01-15T01:46:13;10.7;;;9.7;;
72974;SDS011;74127;54.228;37.632;2024-01-15T01:50:14;12.9;;;10.2;;
72974;SDS011;74127;54.228;37.632;2024-01-15T01:54:13;13.5;;;11.1;;
72974;SDS011;74127;54.228;37.632;2024-01-15T01:58:13;16;;;11.6;;
72974;SDS011;74127;54.228;37.632;2024-01-15T02:02:14;16;;;11.6;;
72974;SDS011;74127;54.228;37.632;2024-01-15T02:06:13;12.9;;;9.9;;
72974;SDS011;74127;54.228;37.632;2024-01-15T02:10:13;13.8;;;11.5;;
72974;SDS011;74127;54.228;37.632;2024-01-15T02:14:14;15.5;;;11.9;;
72974;SDS011;74127;54.228;37.632;2024-01-15T02:18:13;12.8;;;11.2;;
72974;SDS011;74127;54.228;37.632;2024-01-15T02:22:13;12.8;;;11.2;;
72974;SDS011;74127;54.228;37.632;2024-01-15T02:26:14;16.2;;;13.4;;
72974;SDS011;74127;54.228;37.632;2024-01-15T02:30:13;16.7;;;12.7;;
72974;SDS011;74127;54.228;37.632;2024-01-15T02:34:13;15.5;;;10.9;;
72974;SDS011;74127;54.228;37.632;2024-01-15T02:38:13;13;;;9.4;;
72974;SDS011;74127;54.228;37.632;2024-01-15T02:42:13;13;;;9.4;;
72974;SDS011;74127;54.228;37.632;2024-01-15T02:46:13;12.4;;;10.2;;
72974;SDS011;74127;54.228;37.632;2024-01-15T02:50:13;16;;;11.9;;
72974;SDS011;74127;54.228;37.632;2024-01-15T02:54:13;15.7;;;11.6;;
72974;SDS011;74127;54.228;37.632;2024-01-15T02:58:14;12.9;;;10.7;;
72974;SDS011;74127;54.228;37.632;2024-01-15T03:02:13;12.9;;;10.7;;
72974;SDS011;74127;54.228;37.632;2024-01-15T03:06:13;19.3;;;14.1;;
72974;SDS011;74127;54.228;37.632;2024-01-15T03:10:13;17.1;;;12.9;;
72974;SDS011;74127;54.228;37.632;2024-01-15T03:14:13;20.1;;;12.2;;
72974;SDS011;74127;54.228;37.632;2024-01-15T03:18:13;20.1;;;12.2;;
72974;SDS011;74127;54.228;37.632;2024-01-15T03:22:13;11.8;;;10.7;;
72974;SDS011;74127;54.228;37.632;2024-01-15T03:26:13;16.7;;;13;;
72974;SDS011;74127;54.228;37.632;2024-01-15T03:30:13;12.3;;;11;;
72974;SDS011;74127;54.228;37.632;2024-01-15T03:34:13;12.6;;;11;;
72974;SDS011;74127;54.228;37.632;2024-01-15T03:38:13;12.6;;;11;;
72974;SDS011;74127;54.228;37.632;2024-01-15T03:42:13;14.6;;;11.1;;
72974;SDS011;74127;54.228;37.632;2024-01-15T03:46:13;13.1;;;11.7;;
72974;SDS011;74127;54.228;37.632;2024-01-15T03:50:13;14.5;;;12.6;;
72974;SDS011;74127;54.228;37.632;2024-01-15T03:54:13;18.1;;;13.3;;
72974;SDS011;74127;54.228;37.632;2024-01-15T03:58:13;18.1;;;13.3;;
72974;SDS011;74127;54.228;37.632;2024-01-15T04:02:13;17;;;12.3;;
72974;SDS011;74127;54.228;37.632;2024-01-15T04:06:13;12.8;;;9.6;;
72974;SDS011;74127;54.228;37.632;2024-01-15T04:10:13;14.4;;;11.7;;
72974;SDS011;74127;54.228;37.632;2024-01-15T04:14:13;14.4;;;12.1;;
72974;SDS011;74127;54.228;37.632;2024-01-15T04:18:15;14.4;;;12.1;;
72974;SDS011;74127;54.228;37.632;2024-01-15T04:22:13;14.1;;;12.3;;
72974;SDS011;74127;54.228;37.632;2024-01-15T04:26:13;12.3;;;10.7;;
72974;SDS011;74127;54.228;37.632;2024-01-15T04:30:13;15.4;;;12.7;;
72974;SDS011;74127;54.228;37.632;2024-01-15T04:34:13;11.1;;;10.2;;
72974;SDS011;74127;54.228;37.632;2024-01-15T04:38:13;11.1;;;10.2;;
72974;SDS011;74127;54.228;37.632;2024-01-15T04:42:14;14.6;;;13;;
72974;SDS011;74127;54.228;37.632;2024-01-15T04:46:13;17.7;;;13.8;;
72974;SDS011;74127;54.228;37.632;2024-01-15T04:50:13;18.7;;;13.8;;
72974;SDS011;74127;54.228;37.632;2024-01-15T04:54:13;15.3;;;13.7;;
72974;SDS011;74127;54.228;37.632;2024-01-15T04:58:13;15.3;;;13.7;;
72974;SDS011;74127;54.228;37.632;2024-01-15T05:02:13;14.8;;;12.8;;
72974;SDS011;74127;54.228;37.632;2024-01-15T05:06:13;16.7;;;14.2;;
72974;SDS011;74127;54.228;37.632;2024-01-15T05:10:13;19.3;;;14.4;;
72974;SDS011;74127;54.228;37.632;2024-01-15T05:14:13;19.3;;;14.4;;
72974;SDS011;74127;54.228;37.632;2024-01-15T05:18:13;13.7;;;12;;
72974;SDS011;74127;54.228;37.632;2024-01-15T05:22:13;14.9;;;13.3;;
72974;SDS011;74127;54.228;37.632;2024-01-15T05:26:13;15.8;;;12.6;;
72974;SDS011;74127;54.228;37.632;2024-01-15T05:30:14;19.2;;;13.3;;
72974;SDS011;74127;54.228;37.632;2024-01-15T05:34:13;19.2;;;13.3;;
72974;SDS011;74127;54.228;37.632;2024-01-15T05:38:13;11.8;;;10.6;;
72974;SDS011;74127;54.228;37.632;2024-01-15T05:42:13;17.3;;;12.7;;
72974;SDS011;74127;54.228;37.632;2024-01-15T05:46:13;16.3;;;12.7;;
72974;SDS011;74127;54.228;37.632;2024-01-15T05:50:13;16.1;;;13.3;;
72974;SDS011;74127;54.228;37.632;2024-01-15T05:54:13;16.1;;;13.3;;
72974;SDS011;74127;54.228;37.632;2024-01-15T05:58:13;17.3;;;14.1;;
72974;SDS011;74127;54.228;37.632;2024-01-15T06:02:13;14.9;;;12.9;;
72974;SDS011;74127;54.228;37.632;2024-01-15T06:06:14;15.3;;;13.7;;
72974;SDS011;74127;54.228;37.632;2024-01-15T06:10:14;14.2;;;11.9;;
72974;SDS011;74127;54.228;37.632;2024-01-15T06:14:13;14.2;;;11.9;;
72974;SDS011;74127;54.228;37.632;2024-01-15T06:18:13;18.2;;;14.9;;
72974;SDS011;74127;54.228;37.632;2024-01-15T06:22:14;13.7;;;12.4;;
72974;SDS011;74127;54.228;37.632;2024-01-15T06:26:14;15.7;;;14.1;;
72974;SDS011;74127;54.228;37.632;2024-01-15T06:30:14;15.1;;;13.7;;
72974;SDS011;74127;54.228;37.632;2024-01-15T06:34:15;15.1;;;13.7;;
72974;SDS011;74127;54.228;37.632;2024-01-15T06:38:14;16.7;;;15;;
72974;SDS011;74127;54.228;37.632;2024-01-15T06:42:14;14.5;;;13;;
72974;SDS011;74127;54.228;37.632;2024-01-15T06:46:19;15.5;;;14;;
72974;SDS011;74127;54.228;37.632;2024-01-15T06:50:14;13.8;;;12.5;;
72974;SDS011;74127;54.228;37.632;2024-01-15T06:54:14;13.8;;;12.5;;
72974;SDS011;74127;54.228;37.632;2024-01-15T06:58:14;20;;;16.6;;
72974;SDS011;74127;54.228;37.632;2024-01-15T07:02:14;18.3;;;16.3;;
72974;SDS011;74127;54.228;37.632;2024-01-15T07:06:14;16.5;;;14.9;;
72974;SDS011;74127;54.228;37.632;2024-01-15T07:10:14;16.5;;;14.9;;
72974;SDS011;74127;54.228;37.632;2024-01-15T07:14:14;16.4;;;14.8;;
72974;SDS011;74127;54.228;37.632;2024-01-15T07:18:14;17.1;;;15.7;;
72974;SDS011;74127;54.228;37.632;2024-01-15T07:22:14;18.8;;;15.7;;
72974;SDS011;74127;54.228;37.632;2024-01-15T07:26:14;18.5;;;16.7;;
72974;SDS011;74127;54.228;37.632;2024-01-15T07:30:14;18.5;;;16.7;;
72974;SDS011;74127;54.228;37.632;2024-01-15T07:34:14;17.1;;;15.8;;
72974;SDS011;74127;54.228;37.632;2024-01-15T07:38:14;20.9;;;18.8;;
72974;SDS011;74127;54.228;37.632;2024-01-15T07:42:14;17.5;;;15.8;;
72974;SDS011;74127;54.228;37.632;2024-01-15T07:46:14;18.5;;;16.7;;
72974;SDS011;74127;54.228;37.632;2024-01-15T07:50:14;18.5;;;16.7;;
72974;SDS011;74127;54.228;37.632;2024-01-15T07:54:14;21.8;;;19.7;;
72974;SDS011;74127;54.228;37.632;2024-01-15T07:58:14;17.4;;;16.2;;
72974;SDS011;74127;54.228;37.632;2024-01-15T08:02:14;20.7;;;18.8;;
72974;SDS011;74127;54.228;37.632;2024-01-15T08:06:14;18.9;;;17.3;;
72974;SDS011;74127;54.228;37.632;2024-01-15T08:10:14;18.9;;;17.3;;
72974;SDS011;74127;54.228;37.632;2024-01-15T08:14:14;20.8;;;18.9;;
72974;SDS011;74127;54.228;37.632;2024-01-15T08:18:14;17.9;;;16.5;;
72974;SDS011;74127;54.228;37.632;2024-01-15T08:22:14;17.8;;;16.3;;
72974;SDS011;74127;54.228;37.632;2024-01-15T08:26:14;21.5;;;19.5;;
72974;SDS011;74127;54.228;37.632;2024-01-15T08:30:14;21.5;;;19.5;;
72974;SDS011;74127;54.228;37.632;2024-01-15T08:34:14;21.7;;;19.9;;
72974;SDS011;74127;54.228;37.632;2024-01-15T08:38:14;18.5;;;17.3;;
72974;SDS011;74127;54.228;37.632;2024-01-15T08:42:14;21.7;;;19.4;;
72974;SDS011;74127;54.228;37.632;2024-01-15T08:46:14;21.7;;;19.4;;
72974;SDS011;74127;54.228;37.632;2024-01-15T08:50:14;21.2;;;19.4;;
72974;SDS011;74127;54.228;37.632;2024-01-15T08:54:14;23.4;;;21.1;;
72974;SDS011;74127;54.228;37.632;2024-01-15T08:58:14;30.4;;;26.6;;
72974;SDS011;74127;54.228;37.632;2024-01-15T09:02:14;22.5;;;20.5;;
72974;SDS011;74127;54.228;37.632;2024-01-15T09:06:14;22.5;;;20.5;;
72974;SDS011;74127;54.228;37.632;2024-01-15T09:10:14;21.4;;;19.3;;
72974;SDS011;74127;54.228;37.632;2024-01-15T09:14:14;21.8;;;19.8;;
72974;SDS011;74127;54.228;37.632;2024-01-15T09:18:14;24.5;;;22.1;;
72974;SDS011;74127;54.228;37.632;2024-01-15T09:22:14;21.5;;;19.6;;
72974;SDS011;74127;54.228;37.632;2024-01-15T09:26:14;21.5;;;19.6;;
72974;SDS011;74127;54.228;37.632;2024-01-15T09:30:14;21.7;;;19.4;;
72974;SDS011;74127;54.228;37.632;2024-01-15T09:34:14;22.3;;;20.2;;
72974;SDS011;74127;54.228;37.632;2024-01-15T09:38:14;18.3;;;16.5;;
72974;SDS011;74127;54.228;37.632;2024-01-15T09:42:14;19.9;;;18;;
72974;SDS011;74127;54.228;37.632;2024-01-15T09:46:14;19.9;;;18;;
72974;SDS011;74127;54.228;37.632;2024-01-15T09:50:14;23.5;;;21.2;;
72974;SDS011;74127;54.228;37.632;2024-01-15T09:54:15;19.8;;;17.8;;
72974;SDS011;74127;54.228;37.632;2024-01-15T09:58:14;21.6;;;19.4;;
72974;SDS011;74127;54.228;37.632;2024-01-15T10:02:14;21.4;;;19.3;;
72974;SDS011;74127;54.228;37.632;2024-01-15T10:06:17;21.4;;;19.3;;
72974;SDS011;74127;54.228;37.632;2024-01-15T10:10:14;20.4;;;18.3;;
72974;SDS011;74127;54.228;37.632;2024-01-15T10:14:14;23;;;20.9;;
72974;SDS011;74127;54.228;37.632;2024-01-15T10:18:15;16.6;;;15.4;;
72974;SDS011;74127;54.228;37.632;2024-01-15T10:22:14;26.1;;;23.5;;
72974;SDS011;74127;54.228;37.632;2024-01-15T10:26:14;26.1;;;23.5;;
72974;SDS011;74127;54.228;37.632;2024-01-15T10:30:14;19.7;;;17.8;;
72974;SDS011;74127;54.228;37.632;2024-01-15T10:34:14;25.8;;;21.7;;
72974;SDS011;74127;54.228;37.632;2024-01-15T10:38:15;19.8;;;17.8;;
72974;SDS011;74127;54.228;37.632;2024-01-15T10:42:14;19.8;;;17.8;;
72974;SDS011;74127;54.228;37.632;2024-01-15T10:46:14;15.6;;;14.6;;
72974;SDS011;74127;54.228;37.632;2024-01-15T10:50:14;19.8;;;18.1;;
72974;SDS011;74127;54.228;37.632;2024-01-15T10:54:14;21.4;;;19;;
72974;SDS011;74127;54.228;37.632;2024-01-15T10:58:14;19.2;;;17.6;;
72974;SDS011;74127;54.228;37.632;2024-01-15T11:02:14;19.2;;;17.6;;
72974;SDS011;74127;54.228;37.632;2024-01-15T11:06:18;18.6;;;17;;
72974;SDS011;74127;54.228;37.632;2024-01-15T11:14:33;19.8;;;18.2;;
72974;SDS011;74127;54.228;37.632;2024-01-15T11:18:14;19.4;;;17.6;;
72974;SDS011;74127;54.228;37.632;2024-01-15T11:26:31;18.8;;;17.3;;
72974;SDS011;74127;54.228;37.632;2024-01-15T11:30:14;19.1;;;17.5;;
72974;SDS011;74127;54.228;37.632;2024-01-15T11:34:14;16.8;;;15.4;;
72974;SDS011;74127;54.228;37.632;2024-01-15T11:38:26;18;;;16.7;;
72974;SDS011;74127;54.228;37.632;2024-01-15T11:42:14;18;;;16.7;;
72974;SDS011;74127;54.228;37.632;2024-01-15T11:46:17;16.3;;;14.9;;
72974;SDS011;74127;54.228;37.632;2024-01-15T11:50:14;20.2;;;18;;
72974;SDS011;74127;54.228;37.632;2024-01-15T11:54:15;21.8;;;20.1;;
72974;SDS011;74127;54.228;37.632;2024-01-15T11:58:14;15.9;;;14.7;;
72974;SDS011;74127;54.228;37.632;2024-01-15T12:02:14;15.9;;;14.7;;
72974;SDS011;74127;54.228;37.632;2024-01-15T12:06:14;15.4;;;14.6;;
72974;SDS011;74127;54.228;37.632;2024-01-15T12:10:16;17.8;;;16.7;;
72974;SDS011;74127;54.228;37.632;2024-01-15T12:14:14;20.8;;;19.2;;
72974;SDS011;74127;54.228;37.632;2024-01-15T12:18:18;20.8;;;19.2;;
72974;SDS011;74127;54.228;37.632;2024-01-15T12:22:14;17.8;;;16.6;;
72974;SDS011;74127;54.228;37.632;2024-01-15T12:26:14;17.1;;;15.5;;
72974;SDS011;74127;54.228;37.632;2024-01-15T12:30:14;17.4;;;15.9;;
72974;SDS011;74127;54.228;37.632;2024-01-15T12:34:14;18.6;;;16.9;;
72974;SDS011;74127;54.228;37.632;2024-01-15T12:38:14;18.6;;;16.9;;
72974;SDS011;74127;54.228;37.632;2024-01-15T12:42:14;21.6;;;19.7;;
72974;SDS011;74127;54.228;37.632;2024-01-15T12:46:14;20;;;18.2;;
72974;SDS011;74127;54.228;37.632;2024-01-15T12:50:14;18.4;;;17;;
72974;SDS011;74127;54.228;37.632;2024-01-15T12:54:14;19.7;;;18.1;;
72974;SDS011;74127;54.228;37.632;2024-01-15T12:58:14;19.7;;;18.1;;
72974;SDS011;74127;54.228;37.632;2024-01-15T13:02:14;17.7;;;16.2;;
72974;SDS011;74127;54.228;37.632;2024-01-15T13:06:14;19.5;;;17.9;;
72974;SDS011;74127;54.228;37.632;2024-01-15T13:10:14;22.9;;;20.5;;
72974;SDS011;74127;54.228;37.632;2024-01-15T13:14:14;16.7;;;15.7;;
72974;SDS011;74127;54.228;37.632;2024-01-15T13:18:14;16.7;;;15.7;;
72974;SDS011;74127;54.228;37.632;2024-01-15T13:22:14;19.6;;;18.2;;
72974;SDS011;74127;54.228;37.632;2024-01-15T13:26:14;15;;;13.9;;
72974;SDS011;74127;54.228;37.632;2024-01-15T13:30:14;17.7;;;16.2;;
72974;SDS011;74127;54.228;37.632;2024-01-15T13:34:14;16.9;;;15.8;;
72974;SDS011;74127;54.228;37.632;2024-01-15T13:38:14;16.9;;;15.8;;
72974;SDS011;74127;54.228;37.632;2024-01-15T13:42:14;14.7;;;13.8;;
72974;SDS011;74127;54.228;37.632;2024-01-15T13:46:14;15.4;;;14.3;;
72974;SDS011;74127;54.228;37.632;2024-01-15T13:50:14;17;;;15.6;;
72974;SDS011;74127;54.228;37.632;2024-01-15T13:54:14;19.6;;;18;;
72974;SDS011;74127;54.228;37.632;2024-01-15T13:58:14;19.6;;;18;;
72974;SDS011;74127;54.228;37.632;2024-01-15T14:02:14;19.1;;;17.5;;
72974;SDS011;74127;54.228;37.632;2024-01-15T14:06:14;17.4;;;15.9;;
72974;SDS011;74127;54.228;37.632;2024-01-15T14:10:14;19.4;;;17.8;;
72974;SDS011;74127;54.228;37.632;2024-01-15T14:14:14;19.4;;;17.8;;
72974;SDS011;74127;54.228;37.632;2024-01-15T14:18:14;18.2;;;16.7;;
72974;SDS011;74127;54.228;37.632;2024-01-15T14:22:14;14.3;;;13.4;;
72974;SDS011;74127;54.228;37.632;2024-01-15T14:26:14;15.1;;;13.9;;
72974;SDS011;74127;54.228;37.632;2024-01-15T14:30:14;17.1;;;15.9;;
72974;SDS011;74127;54.228;37.632;2024-01-15T14:34:14;17.1;;;15.9;;
72974;SDS011;74127;54.228;37.632;2024-01-15T14:38:14;22.7;;;20.5;;
72974;SDS011;74127;54.228;37.632;2024-01-15T14:42:14;19.4;;;17.7;;
72974;SDS011;74127;54.228;37.632;2024-01-15T14:46:14;19.5;;;17.6;;
72974;SDS011;74127;54.228;37.632;2024-01-15T14:50:14;21.9;;;19.7;;
72974;SDS011;74127;54.228;37.632;2024-01-15T14:54:14;21.9;;;19.7;;
72974;SDS011;74127;54.228;37.632;2024-01-15T14:58:14;19.6;;;17.7;;
72974;SDS011;74127;54.228;37.632;2024-01-15T15:02:14;25;;;20.7;;
72974;SDS011;74127;54.228;37.632;2024-01-15T15:06:14;22.8;;;20.6;;
72974;SDS011;74127;54.228;37.632;2024-01-15T15:10:15;25.1;;;22.8;;
72974;SDS011;74127;54.228;37.632;2024-01-15T15:14:14;25.1;;;22.8;;
72974;SDS011;74127;54.228;37.632;2024-01-15T15:18:14;19.2;;;17.7;;
72974;SDS011;74127;54.228;37.632;2024-01-15T15:22:15;21.3;;;19;;
72974;SDS011;74127;54.228;37.632;2024-01-15T15:26:14;19.4;;;18;;
72974;SDS011;74127;54.228;37.632;2024-01-15T15:30:15;15.7;;;14.5;;
72974;SDS011;74127;54.228;37.632;2024-01-15T15:34:14;15.7;;;14.5;;
72974;SDS011;74127;54.228;37.632;2024-01-15T15:38:14;19.6;;;17.5;;
72974;SDS011;74127;54.228;37.632;2024-01-15T15:42:14;23.5;;;21.1;;
72974;SDS011;74127;54.228;37.632;2024-01-15T15:46:15;19.2;;;17.7;;
72974;SDS011;74127;54.228;37.632;2024-01-15T15:50:15;21.2;;;19.3;;
72974;SDS011;74127;54.228;37.632;2024-01-15T15:54:15;21.2;;;19.3;;
72974;SDS011;74127;54.228;37.632;2024-01-15T15:58:15;22.7;;;20.3;;
72974;SDS011;74127;54.228;37.632;2024-01-15T16:02:15;18.4;;;16.8;;
72974;SDS011;74127;54.228;37.632;2024-01-15T16:06:15;23.1;;;20.8;;
72974;SDS011;74127;54.228;37.632;2024-01-15T16:10:15;23.1;;;20.8;;
72974;SDS011;74127;54.228;37.632;2024-01-15T16:14:15;27.5;;;22.3;;
72974;SDS011;74127;54.228;37.632;2024-01-15T16:18:15;17.4;;;16;;
72974;SDS011;74127;54.228;37.632;2024-01-15T16:22:15;21.4;;;19.5;;
72974;SDS011;74127;54.228;37.632;2024-01-15T16:26:15;17.4;;;16.1;;
72974;SDS011;74127;54.228;37.632;2024-01-15T16:30:15;17.4;;;16.1;;
72974;SDS011;74127;54.228;37.632;2024-01-15T16:34:15;22.1;;;20.2;;
72974;SDS011;74127;54.228;37.632;2024-01-15T16:38:15;21.7;;;19.7;;
72974;SDS011;74127;54.228;37.632;2024-01-15T16:42:15;20.4;;;19;;
72974;SDS011;74127;54.228;37.632;2024-01-15T16:46:15;26.6;;;22.5;;
72974;SDS011;74127;54.228;37.632;2024-01-15T16:50:15;26.6;;;22.5;;
72974;SDS011;74127;54.228;37.632;2024-01-15T16:54:15;22.4;;;20.4;;
72974;SDS011;74127;54.228;37.632;2024-01-15T16:58:15;28.6;;;24.3;;
72974;SDS011;74127;54.228;37.632;2024-01-15T17:02:15;23.6;;;19.6;;
72974;SDS011;74127;54.228;37.632;2024-01-15T17:06:15;21.9;;;19.4;;
72974;SDS011;74127;54.228;37.632;2024-01-15T17:10:15;21.9;;;19.4;;
72974;SDS011;74127;54.228;37.632;2024-01-15T17:14:15;24.2;;;21.6;;
72974;SDS011;74127;54.228;37.632;2024-01-15T17:18:15;21.8;;;20.2;;
72974;SDS011;74127;54.228;37.632;2024-01-15T17:22:15;24.6;;;20.4;;
72974;SDS011;74127;54.228;37.632;2024-01-15T17:26:15;23.8;;;21.7;;
72974;SDS011;74127;54.228;37.632;2024-01-15T17:30:15;23.8;;;21.7;;
72974;SDS011;74127;54.228;37.632;2024-01-15T17:34:15;25.9;;;21.6;;
72974;SDS011;74127;54.228;37.632;2024-01-15T17:38:15;29.6;;;24.2;;
72974;SDS011;74127;54.228;37.632;2024-01-15T17:42:15;22.3;;;20.2;;
72974;SDS011;74127;54.228;37.632;2024-01-15T17:46:15;22;;;20;;
72974;SDS011;74127;54.228;37.632;2024-01-15T17:50:15;22;;;20;;
72974;SDS011;74127;54.228;37.632;2024-01-15T17:54:15;22.7;;;20.3;;
72974;SDS011;74127;54.228;37.632;2024-01-15T17:58:15;25.4;;;22.9;;
72974;SDS011;74127;54.228;37.632;2024-01-15T18:02:15;23.1;;;20.6;;
72974;SDS011;74127;54.228;37.632;2024-01-15T18:06:15;23.1;;;20.6;;
72974;SDS011;74127;54.228;37.632;2024-01-15T18:10:15;22.3;;;20.3;;
72974;SDS011;74127;54.228;37.632;2024-01-15T18:14:15;29;;;23.5;;
72974;SDS011;74127;54.228;37.632;2024-01-15T18:18:15;30.4;;;25.8;;
72974;SDS011;74127;54.228;37.632;2024-01-15T18:22:15;23.4;;;21.3;;
72974;SDS011;74127;54.228;37.632;2024-01-15T18:26:15;23.4;;;21.3;;
72974;SDS011;74127;54.228;37.632;2024-01-15T18:30:18;23.5;;;21.2;;
72974;SDS011;74127;54.228;37.632;2024-01-15T18:34:15;25.3;;;22.8;;
72974;SDS011;74127;54.228;37.632;2024-01-15T18:38:15;19.4;;;17.9;;
72974;SDS011;74127;54.228;37.632;2024-01-15T18:42:15;27;;;21.2;;
72974;SDS011;74127;54.228;37.632;2024-01-15T18:46:17;27;;;21.2;;
72974;SDS011;74127;54.228;37.632;2024-01-15T18:50:15;22.3;;;18.8;;
72974;SDS011;74127;54.228;37.632;2024-01-15T18:54:15;25.9;;;23.3;;
72974;SDS011;74127;54.228;37.632;2024-01-15T18:58:15;21.7;;;19.4;;
72974;SDS011;74127;54.228;37.632;2024-01-15T19:02:15;23.5;;;21;;
72974;SDS011;74127;54.228;37.632;2024-01-15T19:06:15;23.5;;;21;;
72974;SDS011;74127;54.228;37.632;2024-01-15T19:10:15;23.1;;;20.8;;
72974;SDS011;74127;54.228;37.632;2024-01-15T19:14:15;22.3;;;20.2;;
72974;SDS011;74127;54.228;37.632;2024-01-15T19:18:15;25.9;;;21;;
72974;SDS011;74127;54.228;37.632;2024-01-15T19:22:15;24.2;;;21.8;;
72974;SDS011;74127;54.228;37.632;2024-01-15T19:26:16;24.2;;;21.8;;
72974;SDS011;74127;54.228;37.632;2024-01-15T19:30:15;22;;;20;;
72974;SDS011;74127;54.228;37.632;2024-01-15T19:34:15;23.1;;;18.6;;
72974;SDS011;74127;54.228;37.632;2024-01-15T19:38:15;30.9;;;24.9;;
72974;SDS011;74127;54.228;37.632;2024-01-15T19:42:15;30.9;;;24.9;;
72974;SDS011;74127;54.228;37.632;2024-01-15T19:46:15;26.3;;;23.4;;
72974;SDS011;74127;54.228;37.632;2024-01-15T19:50:15;27.2;;;23.4;;
72974;SDS011;74127;54.228;37.632;2024-01-15T19:54:15;36.1;;;25.6;;
72974;SDS011;74127;54.228;37.632;2024-01-15T19:58:15;22.9;;;19.4;;
72974;SDS011;74127;54.228;37.632;2024-01-15T20:02:15;22.9;;;19.4;;
72974;SDS011;74127;54.228;37.632;2024-01-15T20:06:15;22.7;;;20.5;;
72974;SDS011;74127;54.228;37.632;2024-01-15T20:10:15;33.9;;;26.8;;
72974;SDS011;74127;54.228;37.632;2024-01-15T20:14:15;21.2;;;19;;
72974;SDS011;74127;54.228;37.632;2024-01-15T20:18:15;23.2;;;20.7;;
72974;SDS011;74127;54.228;37.632;2024-01-15T20:22:15;23.2;;;20.7;;
72974;SDS011;74127;54.228;37.632;2024-01-15T20:26:15;18.6;;;17.1;;
72974;SDS011;74127;54.228;37.632;2024-01-15T20:30:15;16.7;;;15.6;;
72974;SDS011;74127;54.228;37.632;2024-01-15T20:34:15;20.4;;;18.7;;
72974;SDS011;74127;54.228;37.632;2024-01-15T20:38:15;24;;;21.7;;
72974;SDS011;74127;54.228;37.632;2024-01-15T20:42:15;24;;;21.7;;
72974;SDS011;74127;54.228;37.632;2024-01-15T20:46:15;22.7;;;20.6;;
72974;SDS011;74127;54.228;37.632;2024-01-15T20:50:15;18.7;;;17.3;;
72974;SDS011;74127;54.228;37.632;2024-01-15T20:54:15;23;;;20.9;;
72974;SDS011;74127;54.228;37.632;2024-01-15T20:58:22;23.5;;;21.6;;
72974;SDS011;74127;54.228;37.632;2024-01-15T21:02:15;23.5;;;21.6;;
72974;SDS011;74127;54.228;37.632;2024-01-15T21:06:15;23.9;;;21.8;;
72974;SDS011;74127;54.228;37.632;2024-01-15T21:10:15;15.7;;;14.7;;
72974;SDS011;74127;54.228;37.632;2024-01-15T21:14:15;23.6;;;20.2;;
72974;SDS011;74127;54.228;37.632;2024-01-15T21:18:15;19.9;;;18.4;;
72974;SDS011;74127;54.228;37.632;2024-01-15T21:22:15;19.9;;;18.4;;
72974;SDS011;74127;54.228;37.632;2024-01-15T21:26:15;17.3;;;16;;
72974;SDS011;74127;54.228;37.632;2024-01-15T21:30:15;19.3;;;18;;
72974;SDS011;74127;54.228;37.632;2024-01-15T21:34:15;18.3;;;16.7;;
72974;SDS011;74127;54.228;37.632;2024-01-15T21:38:15;18.3;;;16.7;;
72974;SDS011;74127;54.228;37.632;2024-01-15T21:42:15;18.6;;;17.3;;
72974;SDS011;74127;54.228;37.632;2024-01-15T21:46:15;20.6;;;18.7;;
72974;SDS011;74127;54.228;37.632;2024-01-15T21:50:15;20.2;;;18.5;;
72974;SDS011;74127;54.228;37.632;2024-01-15T21:54:15;18.1;;;16.4;;
72974;SDS011;74127;54.228;37.632;2024-01-15T21:58:15;18.1;;;16.4;;
72974;SDS011;74127;54.228;37.632;2024-01-15T22:02:15;20.3;;;18.3;;
72974;SDS011;74127;54.228;37.632;2024-01-15T22:06:15;18.5;;;17;;
72974;SDS011;74127;54.228;37.632;2024-01-15T22:10:15;20.4;;;18.5;;
72974;SDS011;74127;54.228;37.632;2024-01-15T22:14:15;20.7;;;18.7;;
72974;SDS011;74127;54.228;37.632;2024-01-15T22:18:15;20.7;;;18.7;;
72974;SDS011;74127;54.228;37.632;2024-01-15T22:22:15;20.4;;;18.3;;
72974;SDS011;74127;54.228;37.632;2024-01-15T22:26:15;16.9;;;15.5;;
72974;SDS011;74127;54.228;37.632;2024-01-15T22:30:15;19;;;17.7;;
72974;SDS011;74127;54.228;37.632;2024-01-15T22:34:15;16.1;;;14.9;;
72974;SDS011;74127;54.228;37.632;2024-01-15T22:38:15;16.1;;;14.9;;
72974;SDS011;74127;54.228;37.632;2024-01-15T22:42:16;17.3;;;16.1;;
72974;SDS011;74127;54.228;37.632;2024-01-15T22:46:15;17.8;;;16.5;;
72974;SDS011;74127;54.228;37.632;2024-01-15T22:50:15;19.3;;;17.5;;
72974;SDS011;74127;54.228;37.632;2024-01-15T22:54:15;20.1;;;18.6;;
72974;SDS011;74127;54.228;37.632;2024-01-15T22:58:15;20.1;;;18.6;;
72974;SDS011;74127;54.228;37.632;2024-01-15T23:02:15;17.9;;;16.2;;
72974;SDS011;74127;54.228;37.632;2024-01-15T23:06:18;18.2;;;16.6;;
72974;SDS011;74127;54.228;37.632;2024-01-15T23:10:15;16.5;;;15.3;;
72974;SDS011;74127;54.228;37.632;2024-01-15T23:14:15;17.5;;;15.9;;
72974;SDS011;74127;54.228;37.632;2024-01-15T23:18:15;17.5;;;15.9;;
72974;SDS011;74127;54.228;37.632;2024-01-15T23:22:15;18.7;;;17.4;;
72974;SDS011;74127;54.228;37.632;2024-01-15T23:26:18;19.4;;;17.7;;
72974;SDS011;74127;54.228;37.632;2024-01-15T23:30:15;15.3;;;14.3;;
72974;SDS011;74127;54.228;37.632;2024-01-15T23:34:15;15.3;;;14.3;;
72974;SDS011;74127;54.228;37.632;2024-01-15T23:38:15;18;;;16.7;;
72974;SDS011;74127;54.228;37.632;2024-01-15T23:42:15;17.9;;;16.8;;
72974;SDS011;74127;54.228;37.632;2024-01-15T23:46:15;15;;;14;;
72974;SDS011;74127;54.228;37.632;2024-01-15T23:50:15;19.2;;;17.5;;
72974;SDS011;74127;54.228;37.632;2024-01-15T23:54:15;19.2;;;17.5;;
72974;SDS011;74127;54.228;37.632;2024-01-15T23:58:15;21;;;19;;
